Time;durP1;ratioP1;P1;durP2;ratioP2;P2;SDS_P1;SDS_P2;PMS_P1;PMS_P2;Temp;Humidity;BMP_temperature;BMP_pressure;BME280_temperature;BME280_humidity;BME280_pressure;Samples;Min_cycle;Max_cycle;Signal;HPM_P1;HPM_P2
2022/06/15 00:01:31;;;;;;;4.85;2.22;;;23.20;78.40;;;;;;5075933;28;20094;-61
2022/06/15 00:04:00;;;;;;;5.25;2.25;;;23.40;80.20;;;;;;5059033;28;20169;-62
2022/06/15 00:06:27;;;;;;;4.38;2.20;;;23.20;80.20;;;;;;5055139;28;20044;-62
2022/06/15 00:08:54;;;;;;;3.45;1.83;;;23.00;79.90;;;;;;5055960;28;20390;-61
2022/06/15 00:11:22;;;;;;;4.28;1.92;;;23.30;80.00;;;;;;5056086;28;20049;-65
2022/06/15 00:13:48;;;;;;;3.85;2.00;;;;;;;;;;5064749;28;20051;-62
2022/06/15 00:16:14;;;;;;;4.13;2.03;;;23.10;80.00;;;;;;5076062;28;20076;-61
2022/06/15 00:18:40;;;;;;;5.28;2.10;;;23.30;80.00;;;;;;5074702;28;20086;-62
2022/06/15 00:21:06;;;;;;;6.53;2.20;;;23.10;79.90;;;;;;5071532;28;20416;-62
2022/06/15 00:23:32;;;;;;;6.00;2.10;;;23.20;79.90;;;;;;5066978;28;20048;-61
2022/06/15 00:25:58;;;;;;;4.63;2.17;;;23.10;77.20;;;;;;5057685;28;20056;-62
2022/06/15 00:28:25;;;;;;;5.40;2.20;;;23.00;80.10;;;;;;5075811;28;20032;-62
2022/06/15 00:30:51;;;;;;;5.13;2.53;;;23.00;80.20;;;;;;5054921;28;20051;-62
2022/06/15 00:33:19;;;;;;;5.90;2.40;;;22.90;79.90;;;;;;5060738;28;20037;-62
2022/06/15 00:35:59;;;;;;;7.85;2.30;;;22.90;80.20;;;;;;5058537;28;20041;-61
2022/06/15 00:38:31;;;;;;;5.30;1.90;;;23.00;80.00;;;;;;5068310;28;20041;-61
2022/06/15 00:40:57;;;;;;;5.18;1.98;;;23.00;80.30;;;;;;5055449;28;20045;-62
2022/06/15 00:43:32;;;;;;;5.95;2.08;;;22.90;80.00;;;;;;5055413;28;20390;-63
2022/06/15 00:45:59;;;;;;;5.25;2.05;;;22.90;77.60;;;;;;5054369;28;20393;-61
2022/06/15 00:48:25;;;;;;;3.95;2.00;;;23.10;80.20;;;;;;5075170;28;20092;-62
2022/06/15 00:50:51;;;;;;;5.05;1.92;;;23.00;80.50;;;;;;5073462;28;20076;-61
2022/06/15 00:53:16;;;;;;;4.53;1.90;;;22.90;77.00;;;;;;5064545;28;20045;-61
2022/06/15 00:55:42;;;;;;;4.47;1.85;;;22.90;80.00;;;;;;5064497;28;20029;-61
2022/06/15 00:58:08;;;;;;;5.63;2.15;;;22.80;79.90;;;;;;5064803;28;20411;-62
2022/06/15 01:00:34;;;;;;;4.40;2.03;;;22.90;80.00;;;;;;5075252;28;20037;-62
2022/06/15 01:03:00;;;;;;;4.38;2.00;;;23.10;80.30;;;;;;5073237;28;20044;-62
2022/06/15 01:05:37;;;;;;;5.80;2.40;;;22.90;77.10;;;;;;5072942;28;20119;-62
2022/06/15 01:08:13;;;;;;;5.43;2.05;;;22.70;79.90;;;;;;5041429;28;20095;-62
2022/06/15 01:10:47;;;;;;;4.72;1.95;;;22.80;80.10;;;;;;5057180;28;20067;-62
2022/06/15 01:13:19;;;;;;;4.75;2.10;;;22.80;75.10;;;;;;5061308;28;20418;-62
2022/06/15 01:16:08;;;;;;;5.28;2.28;;;22.70;80.10;;;;;;5073039;28;20067;-62
2022/06/15 01:19:07;;;;;;;4.47;1.80;;;22.60;79.80;;;;;;5072357;28;20163;-62
2022/06/15 01:21:58;;;;;;;5.85;2.17;;;22.80;79.80;;;;;;5056908;28;20060;-62
2022/06/15 01:24:55;;;;;;;4.72;1.95;;;22.80;76.60;;;;;;5070639;28;20133;-62
2022/06/15 01:27:45;;;;;;;6.50;2.10;;;22.90;79.90;;;;;;5060513;28;20063;-62
2022/06/15 01:30:20;;;;;;;4.85;2.10;;;22.90;79.90;;;;;;5070214;28;20131;-62
2022/06/15 01:33:01;;;;;;;4.70;1.90;;;22.80;80.20;;;;;;5074887;28;20376;-62
2022/06/15 01:35:40;;;;;;;4.40;1.83;;;22.90;79.80;;;;;;5055390;28;20079;-61
2022/06/15 01:38:21;;;;;;;4.07;1.88;;;22.90;79.90;;;;;;5076596;28;20397;-62
2022/06/15 01:40:57;;;;;;;4.82;2.25;;;22.70;79.70;;;;;;5072790;28;20041;-61
2022/06/15 01:43:26;;;;;;;5.40;2.00;;;22.60;79.50;;;;;;5058245;28;20453;-62
2022/06/15 01:45:51;;;;;;;4.53;1.95;;;22.60;79.60;;;;;;5026162;28;20053;-61
2022/06/15 01:48:17;;;;;;;3.85;1.73;;;22.80;79.60;;;;;;5063591;28;20048;-62
2022/06/15 01:50:48;;;;;;;5.47;2.25;;;22.80;79.70;;;;;;5073955;28;20044;-61
2022/06/15 01:53:35;;;;;;;4.10;2.03;;;22.80;79.60;;;;;;5073050;28;20088;-61
2022/06/15 01:56:12;;;;;;;4.18;2.25;;;22.70;75.70;;;;;;5032789;28;20517;-62
2022/06/15 01:58:38;;;;;;;7.07;1.92;;;22.80;79.50;;;;;;5059631;28;20039;-61
2022/06/15 02:01:08;;;;;;;5.03;2.17;;;22.90;79.60;;;;;;5056157;28;20580;-61
2022/06/15 02:03:54;;;;;;;4.55;1.95;;;22.80;79.50;;;;;;5071733;28;20076;-61
2022/06/15 02:06:59;;;;;;;5.85;2.35;;;22.90;75.70;;;;;;5075426;28;20056;-62
2022/06/15 02:09:35;;;;;;;4.55;2.33;;;22.60;79.40;;;;;;5056625;28;20044;-61
2022/06/15 02:12:01;;;;;;;5.47;1.77;;;22.70;79.50;;;;;;5072577;28;20056;-62
2022/06/15 02:14:50;;;;;;;4.10;2.00;;;22.80;79.40;;;;;;5072580;28;20044;-62
2022/06/15 02:17:22;;;;;;;7.82;2.20;;;22.80;79.50;;;;;;5044701;28;20075;-62
2022/06/15 02:19:49;;;;;;;4.03;2.03;;;22.80;79.40;;;;;;5067735;28;20491;-62
2022/06/15 02:22:20;;;;;;;7.38;2.70;;;22.70;79.40;;;;;;5070262;28;20060;-62
2022/06/15 02:24:47;;;;;;;4.07;2.15;;;22.80;79.70;;;;;;5072838;28;20052;-61
2022/06/15 02:27:13;;;;;;;4.45;2.00;;;22.80;79.60;;;;;;5054099;28;20438;-62
2022/06/15 02:29:39;;;;;;;4.40;2.13;;;22.70;78.00;;;;;;5051807;28;20399;-64
2022/06/15 02:32:11;;;;;;;6.40;2.17;;;22.60;79.30;;;;;;5083271;28;20039;-62
2022/06/15 02:34:37;;;;;;;;;;;22.70;76.90;;;;;;5074136;28;20094;-62
2022/06/15 02:37:05;;;;;;;4.40;2.42;;;;;;;;;;5067352;28;19943;-61
2022/06/15 02:39:31;;;;;;;6.88;2.22;;;22.60;79.30;;;;;;5070738;28;20130;-62
2022/06/15 02:41:58;;;;;;;6.32;2.50;;;22.70;79.40;;;;;;5066453;28;20064;-62
2022/06/15 02:44:24;;;;;;;4.47;2.42;;;22.60;76.70;;;;;;5073716;28;20106;-61
2022/06/15 02:46:49;;;;;;;4.72;2.20;;;22.80;76.50;;;;;;5072155;28;20048;-62
2022/06/15 02:49:15;;;;;;;5.45;2.33;;;22.60;79.30;;;;;;5071273;28;20045;-61
2022/06/15 02:51:46;;;;;;;5.63;2.22;;;22.50;79.20;;;;;;5070897;28;20052;-61
2022/06/15 02:54:21;;;;;;;3.70;1.92;;;22.50;79.40;;;;;;5064360;28;20052;-61
2022/06/15 02:56:47;;;;;;;4.68;2.17;;;22.80;79.40;;;;;;5054455;28;20091;-62
2022/06/15 02:59:12;;;;;;;5.70;2.30;;;22.50;79.40;;;;;;5065761;28;20743;-61
2022/06/15 03:01:38;;;;;;;3.97;2.08;;;;;;;;;;5072229;28;20040;-63
2022/06/15 03:04:04;;;;;;;3.67;1.85;;;22.40;79.20;;;;;;5084475;28;20048;-62
2022/06/15 03:06:30;;;;;;;3.00;1.85;;;22.50;79.20;;;;;;5072348;28;20505;-62
2022/06/15 03:08:56;;;;;;;5.28;2.47;;;;;;;;;;5071363;28;20048;-61
2022/06/15 03:11:24;;;;;;;5.18;2.15;;;22.30;79.00;;;;;;5065681;28;20081;-62
2022/06/15 03:13:53;;;;;;;5.50;2.15;;;22.60;79.30;;;;;;5066040;28;20053;-61
2022/06/15 03:16:19;;;;;;;7.60;2.83;;;22.50;79.20;;;;;;5079704;28;20052;-62
2022/06/15 03:18:45;;;;;;;6.20;2.40;;;22.60;79.30;;;;;;5079564;28;20071;-61
2022/06/15 03:21:10;;;;;;;4.55;2.30;;;22.70;79.30;;;;;;5066267;28;20051;-62
2022/06/15 03:23:36;;;;;;;4.10;2.05;;;22.50;79.30;;;;;;5077460;28;20063;-61
2022/06/15 03:26:02;;;;;;;3.80;2.00;;;22.60;79.20;;;;;;5077533;28;20028;-61
2022/06/15 03:28:28;;;;;;;4.72;2.28;;;22.60;79.20;;;;;;5070726;28;20107;-62
2022/06/15 03:30:54;;;;;;;3.72;2.20;;;22.60;79.20;;;;;;5064011;28;20440;-62
2022/06/15 03:33:20;;;;;;;5.10;2.55;;;22.30;79.00;;;;;;5079466;28;20052;-61
2022/06/15 03:35:46;;;;;;;5.10;2.30;;;22.40;76.20;;;;;;5073203;28;20055;-62
2022/06/15 03:38:12;;;;;;;3.92;2.22;;;22.50;79.10;;;;;;5079478;28;20402;-61
2022/06/15 03:40:39;;;;;;;4.75;2.25;;;22.70;79.30;;;;;;5079832;28;20051;-62
2022/06/15 03:43:05;;;;;;;5.03;2.10;;;22.50;79.10;;;;;;5077890;28;20449;-62
2022/06/15 03:45:30;;;;;;;5.65;2.30;;;22.40;79.10;;;;;;5076221;28;20075;-62
2022/06/15 03:47:56;;;;;;;4.90;2.30;;;22.20;78.90;;;;;;5079445;28;20123;-62
2022/06/15 03:50:23;;;;;;;5.43;2.25;;;22.50;79.10;;;;;;5078198;28;20053;-62
2022/06/15 03:52:49;;;;;;;4.72;2.40;;;22.50;79.10;;;;;;5062429;28;20057;-61
2022/06/15 03:55:15;;;;;;;5.53;2.42;;;22.50;79.20;;;;;;5060445;28;20052;-64
2022/06/15 03:57:40;;;;;;;5.88;2.33;;;22.40;76.80;;;;;;5076548;28;20053;-62
2022/06/15 04:00:07;;;;;;;4.25;2.20;;;22.40;79.20;;;;;;5079601;28;20102;-61
2022/06/15 04:02:33;;;;;;;5.18;2.20;;;22.20;78.90;;;;;;5060925;28;20498;-61
2022/06/15 04:04:59;;;;;;;5.55;2.20;;;22.40;79.20;;;;;;5072955;28;20053;-61
2022/06/15 04:10:13;;;;;;;5.43;2.38;;;22.70;75.50;;;;;;5079424;28;20075;-61
2022/06/15 04:12:38;;;;;;;4.90;2.35;;;22.60;79.40;;;;;;5061854;28;20048;-62
2022/06/15 04:15:05;;;;;;;5.07;2.45;;;22.70;76.30;;;;;;5065991;28;20045;-61
2022/06/15 04:17:31;;;;;;;4.43;2.30;;;22.70;79.40;;;;;;5067174;28;20103;-62
2022/06/15 04:22:41;;;;;;;5.25;2.30;;;22.50;79.30;;;;;;5059132;28;20122;-62
2022/06/15 04:25:09;;;;;;;4.55;2.25;;;22.50;79.30;;;;;;5069559;28;20055;-61
2022/06/15 04:27:36;;;;;;;5.18;2.38;;;22.70;79.40;;;;;;5073451;28;20106;-61
2022/06/15 04:30:02;;;;;;;5.50;2.30;;;;;;;;;;5075769;28;20087;-61
2022/06/15 04:32:28;;;;;;;4.03;2.00;;;22.60;79.40;;;;;;5074794;28;20072;-62
2022/06/15 04:34:54;;;;;;;5.95;2.28;;;22.70;79.20;;;;;;5071516;28;20402;-61
2022/06/15 04:37:19;;;;;;;4.60;2.10;;;22.60;77.40;;;;;;5042872;28;20053;-61
2022/06/15 04:39:45;;;;;;;5.50;2.33;;;22.70;79.30;;;;;;5071720;28;20132;-62
2022/06/15 04:42:11;;;;;;;5.57;2.08;;;;;;;;;;5075673;28;20075;-61
2022/06/15 04:44:37;;;;;;;6.10;2.25;;;22.50;79.40;;;;;;5075607;28;20048;-61
2022/06/15 04:47:03;;;;;;;5.15;2.25;;;22.60;76.50;;;;;;5074240;28;20047;-62
2022/06/15 04:49:29;;;;;;;3.72;1.92;;;22.80;79.40;;;;;;5060002;28;20048;-61
2022/06/15 04:51:55;;;;;;;4.60;2.05;;;22.60;79.20;;;;;;5075060;28;20037;-61
2022/06/15 04:54:22;;;;;;;5.00;2.20;;;;;;;;;;5060467;28;20402;-61
2022/06/15 04:56:47;;;;;;;4.70;2.10;;;22.80;79.50;;;;;;5064324;28;20504;-62
2022/06/15 04:59:13;;;;;;;4.13;2.00;;;22.80;79.20;;;;;;5082939;28;20124;-62
2022/06/15 05:01:39;;;;;;;5.10;2.35;;;22.80;79.20;;;;;;5073551;28;20049;-62
2022/06/15 05:04:05;;;;;;;6.55;2.15;;;22.70;79.20;;;;;;5075271;28;20033;-62
2022/06/15 05:06:36;;;;;;;4.38;1.95;;;22.70;79.10;;;;;;5071097;28;20036;-61
2022/06/15 05:09:03;;;;;;;4.72;2.00;;;22.60;74.90;;;;;;5075160;28;20067;-62
2022/06/15 05:11:28;;;;;;;4.07;2.13;;;22.90;78.70;;;;;;5071516;28;20044;-62
2022/06/15 05:13:54;;;;;;;5.05;1.90;;;22.80;79.00;;;;;;5073090;28;20159;-63
2022/06/15 05:16:20;;;;;;;4.20;1.90;;;22.90;79.30;;;;;;5073557;28;20139;-62
2022/06/15 05:18:46;;;;;;;3.80;1.98;;;22.90;79.20;;;;;;5049089;28;20130;-62
2022/06/15 05:21:12;;;;;;;4.20;1.83;;;22.80;76.20;;;;;;5060891;28;20033;-61
2022/06/15 05:23:38;;;;;;;4.18;2.08;;;22.90;79.10;;;;;;5073722;28;20052;-61
2022/06/15 05:26:04;;;;;;;7.38;2.20;;;;;;;;;;5058664;28;20537;-64
2022/06/15 05:28:30;;;;;;;4.90;2.35;;;23.20;79.10;;;;;;5073017;28;20076;-66
2022/06/15 05:31:03;;;;;;;6.45;2.35;;;23.10;75.60;;;;;;5074358;28;20076;-61
2022/06/15 05:33:28;;;;;;;;;;;22.90;76.70;;;;;;5073691;28;20506;-62
2022/06/15 05:36:01;;;;;;;5.18;1.90;;;23.10;79.30;;;;;;5071720;28;19928;-62
2022/06/15 05:38:27;;;;;;;3.47;2.00;;;22.90;79.30;;;;;;5074182;28;20106;-62
2022/06/15 05:40:52;;;;;;;3.92;1.85;;;23.00;76.30;;;;;;5073650;28;20048;-62
2022/06/15 05:43:18;;;;;;;3.70;1.80;;;23.00;79.20;;;;;;5074730;28;20044;-63
2022/06/15 05:45:44;;;;;;;3.97;1.70;;;23.30;79.50;;;;;;5071565;28;20118;-62
2022/06/15 05:48:09;;;;;;;3.53;2.03;;;23.30;76.50;;;;;;5071526;28;20041;-61
2022/06/15 05:50:35;;;;;;;4.13;1.83;;;23.20;77.00;;;;;;5074648;28;20045;-62
2022/06/15 05:53:01;;;;;;;3.83;1.58;;;23.40;79.60;;;;;;5074463;28;20462;-61
2022/06/15 05:55:27;;;;;;;3.03;1.42;;;23.20;79.30;;;;;;5072747;28;20413;-62
2022/06/15 05:57:52;;;;;;;5.55;1.95;;;23.30;79.50;;;;;;5069085;28;20087;-61
2022/06/15 06:00:19;;;;;;;4.22;1.73;;;23.20;79.40;;;;;;5074046;28;20033;-62
2022/06/15 06:02:44;;;;;;;3.63;1.60;;;23.10;76.10;;;;;;5038940;28;20048;-62
2022/06/15 06:05:10;;;;;;;4.43;1.70;;;23.30;79.60;;;;;;5035873;28;20132;-62
2022/06/15 06:07:36;;;;;;;4.07;1.63;;;23.50;79.40;;;;;;5056219;28;20036;-61
2022/06/15 06:10:03;;;;;;;3.72;2.03;;;23.40;76.60;;;;;;5075801;28;20045;-67
2022/06/15 06:12:28;;;;;;;3.25;1.67;;;23.50;79.40;;;;;;5073552;28;20359;-64
2022/06/15 06:14:54;;;;;;;5.22;1.80;;;23.50;76.60;;;;;;5072646;28;20049;-62
2022/06/15 06:17:21;;;;;;;5.30;1.73;;;23.50;79.40;;;;;;5072369;28;20663;-62
2022/06/15 06:19:47;;;;;;;3.55;1.90;;;23.50;79.30;;;;;;5069460;28;20101;-62
2022/06/15 06:22:12;;;;;;;4.45;1.80;;;23.50;79.40;;;;;;5055759;28;20098;-63
2022/06/15 06:24:38;;;;;;;3.20;1.60;;;23.30;79.20;;;;;;5071908;28;20051;-67
2022/06/15 06:27:05;;;;;;;3.80;1.70;;;23.30;76.40;;;;;;5072468;28;20133;-61
2022/06/15 06:29:31;;;;;;;5.07;1.65;;;23.60;79.50;;;;;;5068411;28;20502;-62
2022/06/15 06:31:58;;;;;;;4.70;2.20;;;23.80;79.60;;;;;;5072098;28;20127;-63
2022/06/15 06:34:24;;;;;;;4.30;1.63;;;23.80;79.70;;;;;;5073312;28;20040;-62
2022/06/15 06:36:49;;;;;;;3.90;1.90;;;23.50;76.50;;;;;;5065067;28;20131;-62
2022/06/15 06:39:20;;;;;;;5.47;1.70;;;23.60;79.30;;;;;;5072199;28;20124;-63
2022/06/15 06:41:46;;;;;;;5.22;2.05;;;23.80;79.30;;;;;;5039147;28;20123;-63
2022/06/15 06:44:12;;;;;;;6.82;2.13;;;23.70;79.10;;;;;;5072275;28;20462;-62
2022/06/15 06:46:40;;;;;;;4.53;1.85;;;24.00;76.50;;;;;;5071229;28;20048;-62
2022/06/15 06:49:06;;;;;;;4.57;1.85;;;23.80;79.00;;;;;;5070921;28;20052;-63
2022/06/15 06:51:33;;;;;;;4.45;1.70;;;23.70;78.90;;;;;;5061380;28;20044;-62
2022/06/15 06:53:58;;;;;;;14.25;2.13;;;24.20;76.70;;;;;;5053202;28;20037;-64
2022/06/15 06:56:24;;;;;;;16.67;2.88;;;24.00;78.90;;;;;;5054777;28;20047;-65
2022/06/15 06:58:50;;;;;;;16.27;2.30;;;24.40;78.90;;;;;;5069484;28;20045;-62
2022/06/15 07:01:16;;;;;;;26.75;2.50;;;24.20;78.70;;;;;;5070732;28;20120;-63
2022/06/15 07:03:41;;;;;;;15.18;2.92;;;24.40;78.70;;;;;;5054951;28;20099;-72
2022/06/15 07:06:08;;;;;;;13.55;2.40;;;24.50;79.10;;;;;;5055110;28;20483;-63
2022/06/15 07:08:34;;;;;;;15.15;2.60;;;24.30;78.40;;;;;;5070515;28;20131;-65
2022/06/15 07:11:00;;;;;;;15.90;2.67;;;24.50;75.50;;;;;;5053366;28;20464;-64
2022/06/15 07:13:25;;;;;;;11.20;2.22;;;24.40;78.30;;;;;;5066118;28;20041;-62
2022/06/15 07:15:51;;;;;;;14.50;2.60;;;24.50;75.40;;;;;;5072628;28;20044;-62
2022/06/15 07:18:17;;;;;;;19.13;2.35;;;24.40;78.20;;;;;;5070877;28;20064;-66
2022/06/15 07:20:43;;;;;;;19.38;2.78;;;24.50;75.30;;;;;;5071971;28;20041;-62
2022/06/15 07:23:08;;;;;;;10.25;2.67;;;24.40;75.40;;;;;;5070775;28;20501;-63
2022/06/15 07:25:34;;;;;;;12.68;2.05;;;24.40;78.00;;;;;;5070844;28;20043;-62
2022/06/15 07:28:01;;;;;;;7.88;1.98;;;24.60;78.00;;;;;;5051253;28;20053;-64
2022/06/15 07:30:27;;;;;;;7.65;1.75;;;24.70;75.40;;;;;;5068364;28;20132;-63
2022/06/15 07:32:53;;;;;;;7.07;1.88;;;24.60;78.00;;;;;;5064993;28;20127;-64
2022/06/15 07:35:30;;;;;;;8.18;1.92;;;24.80;75.20;;;;;;5053041;28;20044;-61
2022/06/15 07:37:56;;;;;;;5.95;1.63;;;24.70;75.40;;;;;;5059255;28;20048;-63
2022/06/15 07:40:23;;;;;;;5.32;1.42;;;24.90;75.30;;;;;;5065999;28;20060;-64
2022/06/15 07:42:49;;;;;;;4.72;1.85;;;25.10;78.30;;;;;;5071006;28;20033;-63
2022/06/15 07:45:15;;;;;;;9.05;2.20;;;24.90;75.20;;;;;;5052334;28;20099;-63
2022/06/15 07:50:25;;;;;;;5.65;1.90;;;25.30;74.20;;;;;;5060614;28;20033;-62
2022/06/15 07:52:51;;;;;;;10.50;2.08;;;25.00;77.70;;;;;;5067419;28;20607;-63
2022/06/15 07:55:20;;;;;;;8.82;1.80;;;25.10;74.60;;;;;;5066576;28;20036;-64
2022/06/15 07:57:46;;;;;;;5.65;1.70;;;24.80;77.70;;;;;;5051962;28;20045;-62
2022/06/15 08:00:12;;;;;;;6.80;2.00;;;25.20;77.70;;;;;;5056074;28;20049;-63
2022/06/15 08:02:38;;;;;;;4.03;1.80;;;25.30;74.60;;;;;;5062973;28;20487;-63
2022/06/15 08:05:04;;;;;;;4.70;1.65;;;25.30;75.00;;;;;;5075864;28;20076;-62
2022/06/15 08:07:30;;;;;;;4.28;1.55;;;25.10;74.20;;;;;;5074649;28;20102;-63
2022/06/15 08:09:55;;;;;;;8.82;2.00;;;25.10;77.30;;;;;;5041697;28;20056;-62
2022/06/15 08:12:23;;;;;;;6.60;2.00;;;25.10;77.30;;;;;;5074770;28;20127;-72
2022/06/15 08:14:50;;;;;;;6.32;1.88;;;25.00;77.10;;;;;;5075763;28;20114;-62
2022/06/15 08:17:18;;;;;;;4.15;1.80;;;25.40;74.80;;;;;;5061076;28;20053;-62
2022/06/15 08:19:48;;;;;;;5.30;1.88;;;25.20;75.30;;;;;;5037677;28;20092;-71
2022/06/15 08:22:14;;;;;;;5.22;1.80;;;25.10;74.60;;;;;;5038448;28;20060;-62
2022/06/15 08:24:40;;;;;;;4.57;1.95;;;25.30;77.20;;;;;;5075328;28;20048;-64
2022/06/15 08:27:05;;;;;;;5.93;2.00;;;25.40;75.80;;;;;;5045790;28;20092;-73
2022/06/15 08:29:32;;;;;;;4.00;1.98;;;25.40;74.50;;;;;;5054148;28;20048;-62
2022/06/15 08:31:58;;;;;;;5.20;1.70;;;25.50;74.60;;;;;;5037753;28;20123;-62
2022/06/15 08:34:25;;;;;;;8.48;2.55;;;25.70;74.30;;;;;;5057946;28;20041;-62
2022/06/15 08:36:50;;;;;;;4.63;1.90;;;25.70;74.40;;;;;;5057281;28;20190;-62
2022/06/15 08:39:16;;;;;;;7.53;1.80;;;25.80;73.90;;;;;;5055724;28;20519;-62
2022/06/15 08:41:47;;;;;;;6.03;1.83;;;25.80;73.60;;;;;;5055748;28;20418;-62
2022/06/15 08:44:34;;;;;;;4.32;1.77;;;26.00;72.50;;;;;;5057158;28;20040;-62
2022/06/15 08:47:28;;;;;;;4.43;2.00;;;25.80;72.50;;;;;;5073419;28;20044;-65
2022/06/15 08:50:08;;;;;;;4.13;1.90;;;25.90;73.90;;;;;;5072532;28;20441;-65
2022/06/15 08:52:39;;;;;;;3.92;1.90;;;26.20;72.40;;;;;;5065041;28;20043;-71
2022/06/15 08:55:24;;;;;;;4.30;1.90;;;26.00;73.80;;;;;;5068495;28;20048;-67
2022/06/15 08:58:00;;;;;;;5.68;2.13;;;26.20;72.30;;;;;;5062216;28;20410;-72
2022/06/15 09:00:31;;;;;;;5.57;2.10;;;26.10;76.30;;;;;;5057518;28;20052;-66
2022/06/15 09:03:09;;;;;;;4.60;1.90;;;26.00;73.50;;;;;;5069953;28;20089;-73
2022/06/15 09:06:00;;;;;;;5.25;2.13;;;26.20;72.20;;;;;;5067422;28;20122;-70
2022/06/15 09:08:32;;;;;;;4.47;2.00;;;26.10;72.20;;;;;;5066929;28;20446;-71
2022/06/15 09:11:25;;;;;;;6.47;2.47;;;26.20;76.30;;;;;;5056199;28;20447;-65
2022/06/15 09:14:09;;;;;;;6.30;1.90;;;26.20;72.10;;;;;;5057034;28;20506;-68
2022/06/15 09:16:56;;;;;;;4.97;1.80;;;26.20;76.20;;;;;;5056934;28;20052;-72
2022/06/15 09:19:59;;;;;;;4.80;1.98;;;26.50;72.20;;;;;;5074270;28;20052;-70
2022/06/15 09:22:31;;;;;;;6.38;2.15;;;26.20;73.50;;;;;;5059574;28;20059;-71
2022/06/15 09:24:58;;;;;;;7.75;1.80;;;26.30;73.40;;;;;;5038011;28;20124;-69
2022/06/15 09:27:29;;;;;;;5.43;1.95;;;26.40;73.10;;;;;;5053709;28;20045;-67
2022/06/15 09:29:57;;;;;;;6.75;1.80;;;26.30;74.00;;;;;;5036802;28;20056;-70
2022/06/15 09:32:30;;;;;;;4.65;1.95;;;26.40;73.30;;;;;;5074677;28;20044;-70
2022/06/15 09:35:04;;;;;;;6.38;2.28;;;26.30;71.70;;;;;;5074804;28;20041;-71
2022/06/15 09:37:31;;;;;;;4.85;2.03;;;26.20;73.30;;;;;;5040469;28;20048;-71
2022/06/15 09:39:58;;;;;;;4.57;1.75;;;26.30;73.30;;;;;;5022853;28;20505;-66
2022/06/15 09:42:27;;;;;;;4.15;1.83;;;26.40;72.80;;;;;;5067661;28;20111;-68
2022/06/15 09:44:56;;;;;;;3.88;2.00;;;26.20;73.00;;;;;;5055349;28;20051;-70
2022/06/15 09:47:45;;;;;;;4.90;1.95;;;26.20;72.60;;;;;;5074393;28;20079;-65
2022/06/15 09:50:40;;;;;;;6.60;2.28;;;26.50;71.90;;;;;;5056131;28;20415;-63
2022/06/15 09:53:15;;;;;;;4.43;2.33;;;26.30;73.00;;;;;;5055169;28;20108;-63
2022/06/15 09:55:46;;;;;;;8.15;2.35;;;26.30;73.00;;;;;;5072962;28;20115;-63
2022/06/15 09:58:17;;;;;;;4.90;1.65;;;26.10;73.00;;;;;;5055601;28;20398;-65
2022/06/15 10:00:43;;;;;;;5.50;2.10;;;26.30;73.20;;;;;;5055270;28;20521;-72
2022/06/15 10:03:23;;;;;;;5.85;2.20;;;26.40;72.80;;;;;;5056197;28;20040;-68
2022/06/15 10:05:49;;;;;;;5.90;2.10;;;26.40;71.90;;;;;;5055615;28;20044;-63
2022/06/15 10:08:15;;;;;;;6.72;2.20;;;26.10;72.70;;;;;;5056384;28;20044;-64
2022/06/15 10:10:49;;;;;;;5.20;2.20;;;26.10;72.70;;;;;;5070792;28;20076;-68
2022/06/15 10:13:17;;;;;;;6.93;2.22;;;26.20;71.50;;;;;;5042663;28;20040;-71
2022/06/15 10:15:43;;;;;;;7.32;2.25;;;26.10;72.90;;;;;;5072506;28;20067;-63
2022/06/15 10:18:36;;;;;;;4.15;2.03;;;26.30;72.50;;;;;;5053816;28;20500;-67
2022/06/15 10:21:14;;;;;;;5.25;2.30;;;26.40;71.60;;;;;;5054273;28;20060;-70
2022/06/15 10:23:56;;;;;;;5.43;2.33;;;26.20;72.80;;;;;;5072596;28;20051;-69
2022/06/15 10:26:31;;;;;;;4.85;2.25;;;26.20;72.90;;;;;;5056002;28;20070;-71
2022/06/15 10:28:58;;;;;;;6.35;2.60;;;26.40;71.50;;;;;;5054751;28;20048;-65
2022/06/15 10:31:28;;;;;;;6.45;2.10;;;26.20;72.80;;;;;;5066745;28;20443;-66
2022/06/15 10:33:54;;;;;;;4.82;2.35;;;26.10;72.60;;;;;;5055159;28;20059;-65
2022/06/15 10:36:27;;;;;;;6.35;2.42;;;26.20;72.40;;;;;;5072527;28;20047;-70
2022/06/15 10:39:04;;;;;;;6.78;2.33;;;26.40;71.10;;;;;;5072709;28;20045;-67
2022/06/15 10:41:46;;;;;;;9.20;2.95;;;26.20;71.10;;;;;;5042875;28;20040;-67
2022/06/15 10:44:18;;;;;;;4.82;2.20;;;26.20;71.30;;;;;;5063392;28;20099;-66
2022/06/15 10:47:07;;;;;;;5.35;2.10;;;25.80;75.00;;;;;;5054976;28;20040;-65
2022/06/15 10:49:42;;;;;;;4.70;2.00;;;26.10;75.60;;;;;;5047381;28;20048;-68
2022/06/15 10:52:26;;;;;;;11.38;2.65;;;26.10;72.70;;;;;;5069344;28;20044;-70
2022/06/15 11:04:18;;;;;;;5.93;2.20;;;26.20;73.00;;;;;;5041283;28;20513;-62
2022/06/15 11:06:50;;;;;;;6.68;2.70;;;26.00;71.10;;;;;;5055723;28;20048;-62
2022/06/15 11:09:28;;;;;;;5.63;2.50;;;25.90;75.70;;;;;;5070145;28;20044;-62
2022/06/15 11:11:55;;;;;;;5.95;2.05;;;26.10;71.50;;;;;;5055763;28;20479;-62
2022/06/15 11:14:55;;;;;;;4.65;2.28;;;25.70;75.60;;;;;;5055395;28;20028;-62
2022/06/15 11:20:49;;;;;;;4.95;2.33;;;26.10;75.70;;;;;;5030837;28;20454;-62
2022/06/15 11:23:23;;;;;;;5.00;2.20;;;25.80;71.50;;;;;;5020271;28;20057;-62
2022/06/15 11:25:56;;;;;;;4.10;2.22;;;25.90;71.50;;;;;;5014629;28;20071;-62
2022/06/15 11:28:33;;;;;;;4.70;2.10;;;25.90;73.10;;;;;;4982388;28;20126;-62
2022/06/15 11:31:04;;;;;;;5.07;2.08;;;26.10;71.80;;;;;;5030148;28;20056;-62
2022/06/15 11:34:09;;;;;;;4.32;2.17;;;25.90;71.40;;;;;;4994043;28;20042;-62
2022/06/15 11:36:41;;;;;;;4.78;2.47;;;25.90;71.90;;;;;;5015142;28;20128;-63
2022/06/15 11:39:17;;;;;;;5.13;2.50;;;25.90;75.30;;;;;;5015376;28;20049;-62
2022/06/15 11:41:47;;;;;;;6.57;2.63;;;26.10;73.50;;;;;;4989516;28;20056;-62
2022/06/15 11:44:21;;;;;;;7.00;2.60;;;26.20;73.40;;;;;;5003981;28;20046;-62
2022/06/15 11:47:24;;;;;;;4.72;2.08;;;25.90;71.80;;;;;;5018667;28;20062;-62
2022/06/15 11:49:59;;;;;;;3.83;1.90;;;26.00;76.30;;;;;;5018234;28;20057;-62
2022/06/15 11:52:48;;;;;;;6.35;2.13;;;25.90;76.20;;;;;;5018198;28;20111;-62
2022/06/15 11:55:32;;;;;;;6.45;2.22;;;25.90;71.90;;;;;;5061738;28;20044;-62
2022/06/15 11:58:29;;;;;;;6.07;2.35;;;25.80;71.90;;;;;;5055196;28;20429;-62
2022/06/15 12:01:29;;;;;;;4.68;2.30;;;25.80;72.30;;;;;;5056993;28;20041;-62
2022/06/15 12:04:16;;;;;;;5.55;2.33;;;26.00;72.50;;;;;;5042388;28;20053;-61
2022/06/15 12:07:03;;;;;;;4.80;2.30;;;25.80;72.10;;;;;;5072357;28;20070;-61
2022/06/15 12:09:54;;;;;;;4.10;2.33;;;26.20;72.60;;;;;;5076669;28;20052;-62
2022/06/15 12:12:38;;;;;;;5.97;2.42;;;25.80;72.50;;;;;;5076652;28;20052;-62
2022/06/15 12:15:29;;;;;;;4.63;2.38;;;26.00;74.10;;;;;;5041455;28;20119;-62
2022/06/15 12:18:10;;;;;;;5.28;2.50;;;25.90;72.70;;;;;;5075190;28;20056;-62
2022/06/15 12:21:11;;;;;;;5.20;2.20;;;25.90;72.40;;;;;;5060148;28;20398;-61
2022/06/15 12:23:41;;;;;;;5.55;2.30;;;26.10;72.70;;;;;;5034247;28;20053;-62
2022/06/15 12:26:30;;;;;;;5.97;2.35;;;26.00;73.80;;;;;;5034016;28;20404;-62
2022/06/15 12:29:01;;;;;;;4.82;2.55;;;25.90;72.50;;;;;;5016855;28;20080;-62
2022/06/15 12:31:48;;;;;;;4.32;2.13;;;25.80;73.60;;;;;;5018185;28;20072;-62
2022/06/15 12:34:21;;;;;;;7.82;3.15;;;25.90;72.40;;;;;;5014248;28;20450;-62
2022/06/15 12:36:53;;;;;;;8.30;2.60;;;25.90;72.20;;;;;;5014247;28;20192;-62
2022/06/15 12:39:19;;;;;;;;;;;25.80;73.70;;;;;;5017502;28;20135;-62
2022/06/15 12:44:57;;;;;;;4.65;2.70;;;25.70;72.50;;;;;;5003440;28;20111;-62
2022/06/15 12:47:24;;;;;;;5.65;2.40;;;25.70;72.50;;;;;;5032765;28;20095;-62
2022/06/15 12:49:53;;;;;;;6.28;2.88;;;25.70;74.30;;;;;;5000413;28;20057;-62
2022/06/15 12:52:29;;;;;;;7.25;2.95;;;25.60;72.40;;;;;;5033620;28;20495;-62
2022/06/15 12:54:55;;;;;;;8.63;3.28;;;25.50;72.40;;;;;;5033853;28;20491;-62
2022/06/15 12:57:28;;;;;;;6.15;3.03;;;25.40;73.10;;;;;;5033939;28;20129;-62
2022/06/15 13:00:21;;;;;;;6.63;2.97;;;25.40;73.70;;;;;;5024163;28;20132;-62
2022/06/15 13:02:53;;;;;;;6.20;3.20;;;25.70;72.80;;;;;;5037890;28;20052;-62
2022/06/15 13:05:25;;;;;;;;;;;25.50;72.60;;;;;;5038815;28;20040;-62
2022/06/15 13:08:24;;;;;;;7.20;2.90;;;25.40;73.00;;;;;;5057118;28;19927;-62
2022/06/15 13:10:53;;;;;;;7.43;3.22;;;25.60;72.80;;;;;;5057208;28;20052;-62
2022/06/15 13:13:44;;;;;;;8.38;2.90;;;25.50;73.40;;;;;;5075531;28;20105;-61
2022/06/15 13:16:29;;;;;;;10.63;3.38;;;25.30;71.70;;;;;;5072295;28;20535;-66
2022/06/15 13:18:55;;;;;;;8.15;3.30;;;25.30;71.80;;;;;;5074512;28;20062;-62
2022/06/15 13:21:23;;;;;;;7.88;3.38;;;25.50;73.50;;;;;;5059909;28;20048;-62
2022/06/15 13:24:06;;;;;;;6.10;2.80;;;25.30;73.20;;;;;;5030735;28;20080;-62
2022/06/15 13:26:32;;;;;;;5.85;3.22;;;25.30;76.00;;;;;;5063765;28;20041;-62
2022/06/15 13:29:03;;;;;;;6.82;2.95;;;25.30;72.90;;;;;;5073815;28;20409;-62
2022/06/15 13:31:44;;;;;;;7.75;2.65;;;25.20;72.30;;;;;;5074668;28;20040;-61
2022/06/15 13:34:36;;;;;;;5.60;3.08;;;25.30;73.60;;;;;;5061964;28;20198;-61
2022/06/15 13:37:18;;;;;;;4.90;2.75;;;25.30;72.80;;;;;;5083427;28;20052;-62